createdAt,value
2023-02-07T00:03:19.993Z,67.03
2023-02-07T00:08:42.178Z,66.49
2023-02-07T00:14:03.879Z,66.93
2023-02-07T00:19:25.585Z,66.03
2023-02-07T00:24:47.255Z,65.94
2023-02-07T00:30:09.468Z,65.85
2023-02-07T00:35:31.140Z,66.25
2023-02-07T00:40:52.845Z,66.79
2023-02-07T00:46:15.993Z,66.23
2023-02-07T00:51:37.971Z,65.88
2023-02-07T00:56:59.647Z,66.09
2023-02-07T01:02:21.461Z,65.84
2023-02-07T01:07:43.248Z,65.48
2023-02-07T01:13:04.951Z,64.78
2023-02-07T01:18:26.711Z,66.53
2023-02-07T01:23:48.626Z,66.85
2023-02-07T01:29:14.435Z,65.79
2023-02-07T01:34:36.092Z,66.19
2023-02-07T01:39:57.772Z,65.27
2023-02-07T01:45:25.795Z,65.81
2023-02-07T01:50:51.020Z,66.56
2023-02-07T01:56:25.970Z,66.95
2023-02-07T02:01:52.953Z,66.47
2023-02-07T02:07:15.595Z,66.65
2023-02-07T02:12:50.276Z,67.17
2023-02-07T02:18:29.408Z,66.20
2023-02-07T02:24:01.986Z,65.26
2023-02-07T02:29:37.144Z,65.49
2023-02-07T02:35:12.259Z,64.89
2023-02-07T02:40:44.510Z,64.83
2023-02-07T02:46:28.589Z,64.51
2023-02-07T02:51:53.067Z,65.17
2023-02-07T02:57:56.195Z,65.38
2023-02-07T03:03:26.930Z,65.16
2023-02-07T03:08:58.096Z,65.97
2023-02-07T03:14:30.604Z,64.24
2023-02-07T03:20:08.610Z,64.06
2023-02-07T03:25:31.864Z,64.72
2023-02-07T03:30:56.696Z,64.57
2023-02-07T03:36:21.429Z,64.02
2023-02-07T03:41:48.868Z,64.64
2023-02-07T03:47:10.530Z,64.71
2023-02-07T03:52:32.216Z,65.56
2023-02-07T03:57:53.901Z,64.84
2023-02-07T04:03:15.596Z,65.77
2023-02-07T04:08:37.617Z,65.86
2023-02-07T04:13:59.319Z,66.41
2023-02-07T04:19:21.288Z,67.15
2023-02-07T04:24:42.965Z,66.89
2023-02-07T04:30:05.245Z,67.73
2023-02-07T04:35:26.974Z,67.83
2023-02-07T04:40:48.704Z,68.12
2023-02-07T04:46:10.594Z,68.54
2023-02-07T04:51:32.686Z,67.61
2023-02-07T04:56:54.356Z,69.01
2023-02-07T05:02:16.061Z,69.58
2023-02-07T05:07:37.768Z,69.62
2023-02-07T05:12:59.458Z,69.46
2023-02-07T05:18:22.835Z,69.70
2023-02-07T05:23:44.572Z,69.16
2023-02-07T05:29:06.254Z,68.23
2023-02-07T05:34:27.939Z,68.68
2023-02-07T05:39:49.634Z,69.83
2023-02-07T05:45:11.371Z,69.71
2023-02-07T05:50:33.184Z,69.60
2023-02-07T05:55:54.907Z,68.80
2023-02-07T06:01:16.618Z,69.87
2023-02-07T06:06:38.298Z,68.38
2023-02-07T06:12:00.117Z,68.35
2023-02-07T06:17:22.006Z,67.93
2023-02-07T06:22:43.717Z,68.35
2023-02-07T06:28:05.419Z,69.44
2023-02-07T06:33:27.111Z,67.34
2023-02-07T06:38:49.196Z,68.07
2023-02-07T06:44:11.484Z,67.10
2023-02-07T06:49:33.414Z,66.95
2023-02-07T06:54:55.096Z,68.08
2023-02-07T07:00:17.170Z,66.75
2023-02-07T07:05:39.096Z,67.58
2023-02-07T07:11:01.001Z,66.49
2023-02-07T07:16:22.957Z,66.26
2023-02-07T07:21:44.666Z,64.66
2023-02-07T07:27:06.523Z,63.93
2023-02-07T07:32:34.061Z,64.15
2023-02-07T07:37:56.107Z,64.33
2023-02-07T07:43:17.791Z,63.72
2023-02-07T07:48:39.464Z,63.00
2023-02-07T07:54:01.536Z,63.64
2023-02-07T07:59:24.203Z,64.20
2023-02-07T08:04:46.052Z,65.97
2023-02-07T08:10:08.033Z,63.62
2023-02-07T08:15:29.954Z,62.92
2023-02-07T08:20:52.035Z,63.62
2023-02-07T08:26:13.732Z,62.11
2023-02-07T08:31:35.502Z,61.97
2023-02-07T08:36:57.414Z,62.84
2023-02-07T08:42:20.524Z,62.28
2023-02-07T08:47:42.288Z,61.50
2023-02-07T08:53:04.359Z,63.09
2023-02-07T08:58:26.408Z,62.09
2023-02-07T09:03:48.082Z,62.45
2023-02-07T09:09:10.436Z,62.59
2023-02-07T09:14:32.476Z,62.26
2023-02-07T09:19:54.139Z,61.68
2023-02-07T09:25:15.798Z,61.30
2023-02-07T09:30:40.578Z,60.79
2023-02-07T09:36:03.443Z,60.30
2023-02-07T09:41:43.840Z,59.69
2023-02-07T09:47:11.688Z,60.69
2023-02-07T09:52:38.260Z,60.43
2023-02-07T09:58:07.463Z,60.87
2023-02-07T10:03:31.538Z,59.92
2023-02-07T10:08:56.143Z,59.70
2023-02-07T10:14:34.028Z,59.83
2023-02-07T10:20:02.591Z,58.96
2023-02-07T10:25:58.109Z,58.52
2023-02-07T10:31:24.990Z,58.31
2023-02-07T10:36:49.600Z,58.85
2023-02-07T10:42:16.644Z,57.76
2023-02-07T10:47:39.931Z,58.09
2023-02-07T10:53:01.640Z,57.34
2023-02-07T10:58:24.959Z,56.22
2023-02-07T11:03:47.495Z,55.96
2023-02-07T11:09:19.816Z,56.78
2023-02-07T11:15:01.199Z,57.79
2023-02-07T11:20:36.515Z,57.29
2023-02-07T11:25:58.377Z,57.45
2023-02-07T11:31:28.125Z,56.26
2023-02-07T11:36:49.820Z,56.94
2023-02-07T11:42:14.837Z,56.09
2023-02-07T11:47:38.292Z,55.91
2023-02-07T11:53:01.917Z,54.76
2023-02-07T11:58:36.999Z,54.74
2023-02-07T12:04:16.308Z,54.49
2023-02-07T12:09:47.410Z,54.02
2023-02-07T12:15:13.449Z,55.61
2023-02-07T12:20:37.400Z,53.79
2023-02-07T12:26:05.731Z,53.97
2023-02-07T12:31:42.273Z,52.45
2023-02-07T12:37:16.132Z,52.00
2023-02-07T12:42:43.047Z,52.67
2023-02-07T12:48:23.686Z,50.58
2023-02-07T12:54:16.588Z,48.27
2023-02-07T12:59:59.807Z,48.82
2023-02-07T13:05:34.544Z,49.18
2023-02-07T13:11:17.393Z,48.68
2023-02-07T13:16:57.881Z,48.28
2023-02-07T13:22:28.376Z,47.59
2023-02-07T13:27:53.448Z,47.36
2023-02-07T13:33:36.611Z,46.89
2023-02-07T13:39:02.251Z,47.94
2023-02-07T13:45:05.732Z,47.10
2023-02-07T13:50:27.377Z,47.15
2023-02-07T13:55:49.570Z,46.77
2023-02-07T14:01:21.811Z,46.78
2023-02-07T14:06:55.688Z,45.55
2023-02-07T14:12:29.532Z,45.28
2023-02-07T14:18:41.284Z,47.49
2023-02-07T14:24:09.134Z,45.30
2023-02-07T14:29:30.767Z,46.25
2023-02-07T14:35:26.879Z,46.73
2023-02-07T14:41:08.459Z,45.96
2023-02-07T14:46:37.943Z,46.38
2023-02-07T14:52:08.311Z,46.13
2023-02-07T14:57:48.680Z,45.85
2023-02-07T15:03:17.623Z,44.86
2023-02-07T15:08:39.329Z,44.50
2023-02-07T15:14:03.818Z,44.35
2023-02-07T15:19:37.706Z,44.08
2023-02-07T15:25:00.873Z,45.16
2023-02-07T15:30:22.671Z,45.56
2023-02-07T15:35:44.332Z,43.62
2023-02-07T15:41:07.489Z,45.81
2023-02-07T15:46:47.701Z,45.80
2023-02-07T15:52:28.279Z,45.97
2023-02-07T15:57:50.810Z,45.71
2023-02-07T16:03:22.389Z,45.39
2023-02-07T16:08:45.225Z,46.95
2023-02-07T16:14:16.780Z,47.50
2023-02-07T16:19:45.997Z,48.99
2023-02-07T16:25:15.107Z,49.00
2023-02-07T16:30:38.330Z,48.52
2023-02-07T16:36:00.225Z,48.33
2023-02-07T16:41:31.949Z,47.79
2023-02-07T16:46:53.671Z,48.45
2023-02-07T16:52:15.350Z,49.36
2023-02-07T16:57:38.481Z,48.49
2023-02-07T17:03:00.650Z,49.50
2023-02-07T17:08:26.963Z,49.03
2023-02-07T17:13:48.741Z,49.49
2023-02-07T17:19:20.036Z,49.13
2023-02-07T17:24:41.776Z,49.35
2023-02-07T17:30:04.640Z,50.53
2023-02-07T17:35:26.408Z,51.17
2023-02-07T17:40:48.122Z,50.75
2023-02-07T17:46:16.600Z,50.88
2023-02-07T17:51:38.313Z,51.26
2023-02-07T17:57:00.225Z,51.64
2023-02-07T18:02:21.978Z,52.45
2023-02-07T18:07:45.311Z,52.08
2023-02-07T18:13:07.163Z,52.01
2023-02-07T18:18:28.832Z,52.27
2023-02-07T18:23:53.125Z,52.51
2023-02-07T18:29:14.824Z,52.85
2023-02-07T18:34:36.520Z,52.08
2023-02-07T18:39:58.337Z,53.04
2023-02-07T18:45:20.021Z,53.72
2023-02-07T18:50:44.141Z,53.35
2023-02-07T18:56:08.821Z,53.66
2023-02-07T19:01:31.419Z,53.78
2023-02-07T19:06:53.391Z,54.21
2023-02-07T19:12:15.437Z,53.83
2023-02-07T19:17:37.193Z,53.81
2023-02-07T19:22:58.925Z,54.95
2023-02-07T19:28:20.622Z,55.44
2023-02-07T19:33:42.343Z,55.04
2023-02-07T19:39:04.726Z,55.21
2023-02-07T19:44:28.904Z,56.55
2023-02-07T19:49:52.428Z,56.85
2023-02-07T19:55:14.249Z,56.85
2023-02-07T20:00:36.008Z,57.19
2023-02-07T20:06:03.759Z,56.46
2023-02-07T20:11:25.592Z,57.39
2023-02-07T20:16:49.067Z,57.11
2023-02-07T20:22:10.903Z,57.39
2023-02-07T20:27:32.798Z,57.75
2023-02-07T20:32:55.608Z,58.43
2023-02-07T20:38:17.341Z,57.55
2023-02-07T20:43:39.915Z,57.22
2023-02-07T20:49:07.824Z,58.14
2023-02-07T20:54:30.359Z,57.88
2023-02-07T20:59:52.053Z,58.19
2023-02-07T21:05:13.862Z,58.53
2023-02-07T21:10:35.525Z,58.66
2023-02-07T21:16:03.394Z,58.50
2023-02-07T21:21:25.873Z,58.87
2023-02-07T21:26:49.237Z,58.93
2023-02-07T21:32:10.947Z,59.38
2023-02-07T21:37:34.988Z,59.44
2023-02-07T21:42:56.756Z,59.12
2023-02-07T21:48:20.164Z,58.66
2023-02-07T21:53:42.038Z,58.36
2023-02-07T21:59:11.477Z,58.42
2023-02-07T22:04:33.215Z,59.66
2023-02-07T22:09:55.013Z,59.12
2023-02-07T22:15:16.702Z,58.88
2023-02-07T22:20:38.702Z,59.41
2023-02-07T22:26:00.655Z,59.74
2023-02-07T22:31:27.751Z,59.58
2023-02-07T22:36:49.452Z,59.99
2023-02-07T22:42:11.115Z,60.34
2023-02-07T22:47:32.834Z,60.77
2023-02-07T22:52:54.554Z,60.33
2023-02-07T22:58:16.242Z,60.22
2023-02-07T23:03:37.939Z,60.38
2023-02-07T23:09:00.437Z,60.39
2023-02-07T23:14:22.197Z,59.97
2023-02-07T23:19:43.871Z,60.12
2023-02-07T23:25:06.759Z,59.65
2023-02-07T23:30:28.487Z,59.47
2023-02-07T23:35:50.156Z,60.07
2023-02-07T23:41:11.872Z,59.81
2023-02-07T23:46:34.513Z,60.27
2023-02-07T23:51:56.254Z,60.35
2023-02-07T23:57:17.928Z,60.59
